Time;durP1;ratioP1;P1;durP2;ratioP2;P2;SDS_P1;SDS_P2;PMS_P1;PMS_P2;Temp;Humidity;BMP_temperature;BMP_pressure;BME280_temperature;BME280_humidity;BME280_pressure;Samples;Min_cycle;Max_cycle;Signal;HPM_P1;HPM_P2
2023/01/29 00:02:24;;;;;;;18.08;12.75;;;6.10;99.90;;;;;;5074190;28;20127;-48
2023/01/29 00:04:50;;;;;;;18.08;13.32;;;6.10;99.90;;;;;;5074052;28;20059;-51
2023/01/29 00:07:17;;;;;;;17.88;13.27;;;6.10;99.90;;;;;;5072692;28;20052;-49
2023/01/29 00:09:44;;;;;;;17.00;13.15;;;6.20;99.90;;;;;;5073618;28;20044;-48
2023/01/29 00:12:11;;;;;;;20.98;16.63;;;6.10;99.90;;;;;;5056279;28;20049;-50
2023/01/29 00:14:37;;;;;;;18.13;14.27;;;6.10;99.90;;;;;;5054083;28;20582;-50
2023/01/29 00:17:04;;;;;;;17.25;13.68;;;6.10;99.90;;;;;;5056411;28;20049;-49
2023/01/29 00:19:31;;;;;;;17.45;13.48;;;6.10;99.90;;;;;;5054116;28;20150;-50
2023/01/29 00:21:58;;;;;;;18.00;13.48;;;6.10;99.90;;;;;;5054070;28;20091;-51
2023/01/29 00:24:24;;;;;;;18.38;13.60;;;6.10;99.90;;;;;;5053887;28;20049;-53
2023/01/29 00:26:51;;;;;;;17.77;13.07;;;6.10;99.90;;;;;;5054152;28;20040;-48
2023/01/29 00:29:18;;;;;;;17.10;13.82;;;6.10;99.90;;;;;;5053178;28;20067;-49
2023/01/29 00:31:45;;;;;;;16.60;13.23;;;6.10;99.90;;;;;;5054193;28;20049;-50
2023/01/29 00:34:12;;;;;;;17.08;13.50;;;6.00;99.90;;;;;;5054325;28;20071;-46
2023/01/29 00:36:39;;;;;;;18.25;13.98;;;6.00;99.90;;;;;;5052241;28;20147;-53
2023/01/29 00:39:09;;;;;;;18.73;14.45;;;6.00;99.90;;;;;;5054281;28;20037;-50
2023/01/29 00:47:29;;;;;;;20.47;14.30;;;5.90;99.90;;;;;;5049252;28;20045;-49
2023/01/29 00:49:54;;;;;;;21.67;14.45;;;6.00;99.90;;;;;;5053848;28;20278;-45
2023/01/29 00:52:23;;;;;;;20.75;14.82;;;5.90;99.90;;;;;;5051819;28;20052;-49
2023/01/29 00:54:50;;;;;;;22.25;14.93;;;5.90;99.90;;;;;;5053997;28;20036;-48
2023/01/29 00:57:17;;;;;;;20.45;15.48;;;5.90;99.90;;;;;;5053830;28;20056;-47
2023/01/29 00:59:44;;;;;;;21.90;15.23;;;5.90;99.90;;;;;;5053032;28;20086;-47
2023/01/29 01:04:56;;;;;;;19.88;15.30;;;5.90;99.90;;;;;;5058726;28;20049;-47
2023/01/29 01:07:23;;;;;;;20.88;15.63;;;5.90;99.90;;;;;;5045680;28;20036;-50
2023/01/29 01:12:46;;;;;;;18.50;14.65;;;5.80;99.90;;;;;;5040016;28;20087;-49
2023/01/29 01:15:12;;;;;;;22.17;15.70;;;5.80;99.90;;;;;;5053551;28;20380;-50
2023/01/29 01:17:39;;;;;;;22.55;15.93;;;5.80;99.90;;;;;;5054543;28;20102;-48
2023/01/29 01:20:07;;;;;;;24.60;16.48;;;5.80;99.90;;;;;;5052325;28;20131;-53
2023/01/29 01:22:34;;;;;;;21.60;16.13;;;5.80;99.90;;;;;;5053791;28;20040;-46
2023/01/29 01:25:01;;;;;;;21.50;16.02;;;5.80;99.90;;;;;;5051639;28;20846;-52
2023/01/29 01:27:28;;;;;;;22.98;16.77;;;5.80;99.90;;;;;;5052392;28;20068;-50
2023/01/29 01:29:55;;;;;;;27.58;16.75;;;5.80;99.90;;;;;;5053629;28;20049;-49
2023/01/29 01:32:21;;;;;;;28.95;18.23;;;5.90;99.90;;;;;;5051507;28;20045;-52
2023/01/29 01:34:48;;;;;;;21.00;17.38;;;5.80;99.90;;;;;;5053299;28;20044;-52
2023/01/29 01:37:15;;;;;;;23.60;17.20;;;5.80;99.90;;;;;;5051977;28;20041;-53
2023/01/29 01:39:42;;;;;;;24.48;18.10;;;5.80;99.90;;;;;;5052897;28;20476;-51
2023/01/29 01:42:09;;;;;;;26.15;17.83;;;5.80;99.90;;;;;;5048899;28;20048;-49
2023/01/29 01:44:35;;;;;;;24.85;18.52;;;5.80;99.90;;;;;;5053400;28;20472;-48
2023/01/29 01:47:02;;;;;;;23.75;17.60;;;5.80;99.90;;;;;;5051552;28;20501;-49
2023/01/29 01:49:30;;;;;;;26.13;17.95;;;5.80;99.90;;;;;;5052263;28;20381;-53
2023/01/29 01:51:57;;;;;;;23.77;17.45;;;5.80;99.90;;;;;;5052725;28;20116;-52
2023/01/29 01:54:23;;;;;;;23.40;16.77;;;5.80;99.90;;;;;;5051963;28;20041;-50
2023/01/29 01:56:51;;;;;;;23.70;18.35;;;5.90;99.90;;;;;;5055694;28;20052;-50
2023/01/29 01:59:18;;;;;;;21.60;17.13;;;5.90;99.90;;;;;;5056229;28;20045;-51
2023/01/29 02:01:46;;;;;;;22.60;16.73;;;5.90;99.90;;;;;;5056900;28;20041;-51
2023/01/29 02:09:45;;;;;;;21.83;16.77;;;5.90;99.90;;;;;;5057154;28;20116;-54
2023/01/29 02:12:12;;;;;;;22.80;18.02;;;5.90;99.90;;;;;;5057030;28;20041;-54
2023/01/29 02:14:39;;;;;;;20.92;16.45;;;5.90;99.90;;;;;;5057041;28;20048;-49
2023/01/29 02:17:05;;;;;;;23.95;17.67;;;5.90;99.90;;;;;;5055452;28;20052;-51
2023/01/29 02:19:32;;;;;;;24.90;17.52;;;5.90;99.90;;;;;;5054870;28;20132;-49
2023/01/29 02:22:00;;;;;;;23.23;18.25;;;5.80;99.90;;;;;;5057125;28;20381;-52
2023/01/29 02:24:27;;;;;;;21.08;17.52;;;5.80;99.90;;;;;;5055495;28;20422;-51
2023/01/29 02:26:55;;;;;;;25.95;17.40;;;5.80;99.90;;;;;;5054531;28;20476;-53
2023/01/29 02:29:24;;;;;;;20.48;17.77;;;5.80;99.90;;;;;;5055613;28;20048;-53
2023/01/29 02:31:50;;;;;;;21.92;16.63;;;5.80;99.90;;;;;;5058994;28;20037;-47
2023/01/29 02:34:17;;;;;;;22.80;17.05;;;5.80;99.90;;;;;;5054255;28;20071;-47
2023/01/29 02:36:44;;;;;;;20.90;15.85;;;5.80;99.90;;;;;;5056066;28;20048;-52
2023/01/29 02:39:11;;;;;;;22.42;16.55;;;5.80;99.90;;;;;;5055667;28;20455;-50
2023/01/29 02:41:38;;;;;;;23.08;16.85;;;5.80;99.90;;;;;;5056287;28;20065;-49
2023/01/29 02:44:04;;;;;;;23.40;16.48;;;5.80;99.90;;;;;;5056638;28;20487;-49
2023/01/29 02:46:31;;;;;;;21.23;16.77;;;5.80;99.90;;;;;;5054726;28;20439;-47
2023/01/29 02:48:58;;;;;;;23.70;16.20;;;5.80;99.90;;;;;;5056254;28;20495;-48
2023/01/29 02:51:25;;;;;;;19.20;15.48;;;5.80;99.90;;;;;;5056435;28;20064;-52
2023/01/29 02:53:52;;;;;;;23.88;17.08;;;5.80;99.90;;;;;;5055945;28;20055;-49
2023/01/29 02:56:18;;;;;;;25.27;17.23;;;5.80;99.90;;;;;;5054607;28;20041;-52
2023/01/29 02:58:45;;;;;;;21.13;16.55;;;5.80;99.90;;;;;;5054571;28;20047;-51
2023/01/29 03:01:12;;;;;;;20.23;15.57;;;5.80;99.90;;;;;;5054378;28;20040;-52
2023/01/29 03:03:39;;;;;;;22.50;15.73;;;5.80;99.90;;;;;;5054897;28;20056;-53
2023/01/29 03:06:06;;;;;;;23.05;17.17;;;5.80;99.90;;;;;;5055903;28;20041;-52
2023/01/29 03:08:41;;;;;;;20.20;16.15;;;5.80;99.90;;;;;;5054079;28;20099;-48
2023/01/29 03:11:12;;;;;;;25.00;16.50;;;5.80;99.90;;;;;;5054370;28;20120;-48
2023/01/29 03:13:39;;;;;;;23.58;16.20;;;5.80;99.90;;;;;;5054607;28;20045;-48
2023/01/29 03:16:06;;;;;;;23.42;16.10;;;5.80;99.90;;;;;;5054744;28;20051;-50
2023/01/29 03:18:44;;;;;;;20.30;16.00;;;5.80;99.90;;;;;;5054565;28;20049;-51
2023/01/29 03:32:27;;;;;;;22.83;16.65;;;5.90;99.90;;;;;;5054612;28;20057;-47
2023/01/29 03:34:55;;;;;;;25.58;17.77;;;5.80;99.90;;;;;;5054159;28;20149;-45
2023/01/29 03:37:23;;;;;;;22.30;17.27;;;5.80;99.90;;;;;;5054255;28;20044;-49
2023/01/29 03:39:50;;;;;;;23.73;16.80;;;5.80;99.90;;;;;;5054144;28;20072;-48
2023/01/29 03:42:17;;;;;;;23.73;16.77;;;5.80;99.90;;;;;;5054337;28;20373;-46
2023/01/29 03:44:44;;;;;;;26.13;17.27;;;5.80;99.90;;;;;;5055611;28;20400;-49
2023/01/29 03:47:21;;;;;;;21.42;17.15;;;5.80;99.90;;;;;;5054187;28;20444;-45
2023/01/29 03:49:48;;;;;;;27.20;18.52;;;5.80;99.90;;;;;;5054185;28;20110;-46
2023/01/29 03:52:15;;;;;;;23.02;17.23;;;5.70;99.90;;;;;;5054272;28;20481;-53
2023/01/29 03:54:42;;;;;;;27.60;18.80;;;5.70;99.90;;;;;;5038058;28;20045;-51
2023/01/29 03:57:14;;;;;;;24.45;17.95;;;5.80;99.90;;;;;;5055012;28;20102;-53
2023/01/29 03:59:41;;;;;;;25.42;18.02;;;5.80;99.90;;;;;;5053960;28;20041;-50
2023/01/29 04:02:26;;;;;;;23.35;17.83;;;5.80;99.90;;;;;;5054081;28;20037;-50
2023/01/29 04:04:55;;;;;;;24.65;17.98;;;5.80;99.90;;;;;;5054456;28;20483;-47
2023/01/29 04:07:23;;;;;;;26.73;18.25;;;5.80;99.90;;;;;;5053710;28;20056;-52
2023/01/29 04:09:59;;;;;;;24.50;17.83;;;5.80;99.90;;;;;;5054030;28;20466;-48
2023/01/29 04:12:26;;;;;;;26.52;18.75;;;5.70;99.90;;;;;;5053883;28;20419;-48
2023/01/29 04:14:53;;;;;;;22.98;17.63;;;5.80;99.90;;;;;;5053609;28;20508;-55
2023/01/29 04:17:20;;;;;;;24.02;18.25;;;5.80;99.90;;;;;;5053318;28;20540;-53
2023/01/29 04:19:59;;;;;;;30.55;17.48;;;5.80;99.90;;;;;;5053263;28;20052;-46
2023/01/29 04:22:26;;;;;;;22.13;16.90;;;5.70;99.90;;;;;;5054224;28;20056;-45
2023/01/29 04:24:52;;;;;;;22.25;17.05;;;5.70;99.90;;;;;;5055167;28;20033;-49
2023/01/29 04:27:20;;;;;;;25.27;18.55;;;5.70;99.90;;;;;;5053788;28;20381;-48
2023/01/29 04:29:48;;;;;;;25.52;16.85;;;5.70;99.90;;;;;;5053844;28;20159;-51
2023/01/29 04:32:15;;;;;;;23.70;16.95;;;5.70;99.90;;;;;;5053654;28;20044;-53
2023/01/29 04:34:43;;;;;;;26.52;17.42;;;5.70;99.90;;;;;;5053904;28;20072;-54
2023/01/29 04:37:10;;;;;;;24.08;17.67;;;5.70;99.90;;;;;;5053511;28;20044;-49
2023/01/29 04:39:36;;;;;;;25.85;17.73;;;5.70;99.90;;;;;;5053207;28;20045;-55
2023/01/29 04:42:03;;;;;;;24.77;16.90;;;5.70;99.90;;;;;;5054755;28;20465;-52
2023/01/29 04:44:30;;;;;;;23.80;16.83;;;5.80;99.90;;;;;;5053958;28;20135;-50
2023/01/29 04:46:57;;;;;;;23.40;17.25;;;5.80;99.90;;;;;;5054272;28;20041;-47
2023/01/29 04:49:24;;;;;;;25.23;17.70;;;5.80;99.90;;;;;;5053934;28;20130;-45
2023/01/29 04:51:51;;;;;;;21.23;16.10;;;5.80;99.90;;;;;;5054119;28;20049;-48
2023/01/29 04:54:18;;;;;;;20.80;15.52;;;5.80;99.90;;;;;;5052872;28;20106;-45
2023/01/29 04:56:44;;;;;;;22.02;16.70;;;5.80;99.90;;;;;;5052633;28;20071;-46
2023/01/29 04:59:11;;;;;;;21.60;16.60;;;5.80;99.90;;;;;;5053700;28;20033;-50
2023/01/29 05:01:38;;;;;;;23.17;15.85;;;5.80;99.90;;;;;;5054040;28;20079;-50
2023/01/29 05:04:05;;;;;;;23.25;16.13;;;5.80;99.90;;;;;;5052948;28;20417;-48
2023/01/29 05:06:32;;;;;;;23.92;17.40;;;5.80;99.90;;;;;;5053931;28;20118;-48
2023/01/29 05:08:59;;;;;;;27.58;17.05;;;5.80;99.90;;;;;;5054069;28;20431;-49
2023/01/29 05:11:25;;;;;;;20.70;16.88;;;5.80;99.90;;;;;;5053938;28;20057;-46
2023/01/29 05:13:52;;;;;;;24.98;17.33;;;5.80;99.90;;;;;;5053767;28;20052;-48
2023/01/29 05:16:19;;;;;;;21.60;16.42;;;5.80;99.90;;;;;;5052035;28;20102;-47
2023/01/29 05:18:46;;;;;;;24.58;16.40;;;5.80;99.90;;;;;;5053688;28;20066;-46
2023/01/29 05:21:12;;;;;;;20.42;16.27;;;5.80;99.90;;;;;;5053864;28;20523;-49
2023/01/29 05:23:51;;;;;;;25.40;16.17;;;5.80;99.90;;;;;;5053734;28;20048;-47
2023/01/29 05:29:04;;;;;;;22.90;16.17;;;5.80;99.90;;;;;;5053833;28;20408;-47
2023/01/29 05:31:30;;;;;;;20.35;15.57;;;5.80;99.90;;;;;;5058828;28;20491;-50
2023/01/29 05:33:57;;;;;;;19.60;15.30;;;5.80;99.90;;;;;;5060441;28;20045;-53
2023/01/29 05:36:25;;;;;;;19.85;15.60;;;5.80;99.90;;;;;;5060070;28;20083;-59
2023/01/29 05:38:52;;;;;;;23.55;16.35;;;5.80;99.90;;;;;;5060036;28;20075;-48
2023/01/29 05:41:19;;;;;;;20.17;15.43;;;5.80;99.90;;;;;;5060108;28;20041;-49
2023/01/29 05:43:46;;;;;;;21.63;16.50;;;5.80;99.90;;;;;;5059970;28;20056;-47
2023/01/29 05:46:13;;;;;;;22.42;15.43;;;5.80;99.90;;;;;;5060148;28;20110;-47
2023/01/29 05:48:40;;;;;;;20.65;15.25;;;5.80;99.90;;;;;;5060204;28;20089;-49
2023/01/29 05:51:07;;;;;;;21.05;15.48;;;5.80;99.90;;;;;;5058981;28;20492;-51
2023/01/29 05:53:33;;;;;;;20.25;14.93;;;5.80;99.90;;;;;;5059920;28;20069;-53
2023/01/29 05:56:00;;;;;;;20.77;15.02;;;5.80;99.90;;;;;;5059952;28;20574;-52
2023/01/29 05:58:27;;;;;;;19.55;14.77;;;5.80;99.90;;;;;;5059929;28;20075;-47
2023/01/29 06:00:53;;;;;;;20.40;15.05;;;5.80;99.90;;;;;;5059796;28;20065;-45
2023/01/29 06:03:20;;;;;;;20.92;15.82;;;5.90;99.90;;;;;;5060204;28;20443;-46
2023/01/29 06:05:47;;;;;;;20.23;15.15;;;5.80;99.90;;;;;;5059767;28;20072;-47
2023/01/29 06:08:13;;;;;;;19.10;14.63;;;5.80;99.90;;;;;;5059976;28;20083;-47
2023/01/29 06:10:40;;;;;;;17.88;14.15;;;5.90;99.90;;;;;;5060150;28;20483;-46
2023/01/29 06:13:07;;;;;;;20.58;14.55;;;5.80;99.90;;;;;;5059973;28;20132;-50
2023/01/29 06:15:34;;;;;;;17.80;14.32;;;5.80;99.90;;;;;;5059687;28;20079;-51
2023/01/29 06:18:00;;;;;;;18.75;14.25;;;5.80;99.90;;;;;;5059247;28;20052;-49
2023/01/29 06:20:27;;;;;;;20.35;14.52;;;5.90;99.90;;;;;;5059867;28;20049;-50
2023/01/29 06:22:54;;;;;;;20.13;13.90;;;5.80;99.90;;;;;;5059517;28;20040;-49
2023/01/29 06:25:22;;;;;;;16.92;13.18;;;5.80;99.90;;;;;;5059710;28;20175;-49
2023/01/29 06:27:49;;;;;;;16.58;12.95;;;5.80;99.90;;;;;;5059726;28;20487;-50
2023/01/29 06:30:15;;;;;;;17.25;13.25;;;5.80;99.90;;;;;;5059716;28;20040;-48
2023/01/29 06:32:43;;;;;;;15.27;12.27;;;5.80;99.90;;;;;;5058731;28;20472;-48
2023/01/29 06:35:09;;;;;;;16.45;13.20;;;5.80;99.90;;;;;;5059660;28;20091;-47
2023/01/29 06:37:36;;;;;;;16.05;11.68;;;5.90;99.90;;;;;;5059269;28;20076;-51
2023/01/29 06:40:03;;;;;;;16.35;11.93;;;5.80;99.90;;;;;;5059519;28;20429;-49
2023/01/29 06:42:30;;;;;;;15.45;11.07;;;5.80;99.90;;;;;;5056588;28;20095;-48
2023/01/29 06:44:56;;;;;;;15.70;11.07;;;5.90;99.90;;;;;;5056412;28;20045;-49
2023/01/29 06:47:23;;;;;;;17.30;10.90;;;5.90;99.90;;;;;;5056172;28;20442;-48
2023/01/29 06:49:50;;;;;;;14.20;10.75;;;5.90;99.90;;;;;;5054991;28;20041;-47
2023/01/29 06:52:17;;;;;;;16.50;10.30;;;5.90;99.90;;;;;;5056603;28;20041;-49
2023/01/29 06:54:44;;;;;;;13.13;10.38;;;5.90;99.90;;;;;;5038734;28;20106;-48
2023/01/29 06:57:11;;;;;;;13.23;9.50;;;5.90;99.90;;;;;;5056172;28;20041;-50
2023/01/29 06:59:38;;;;;;;13.02;8.90;;;5.90;99.90;;;;;;5056382;28;20114;-46
2023/01/29 07:02:04;;;;;;;13.35;9.38;;;5.90;99.90;;;;;;5056296;28;20076;-52
2023/01/29 07:04:31;;;;;;;11.80;8.90;;;5.90;99.90;;;;;;5056041;28;20045;-48
2023/01/29 07:06:58;;;;;;;12.15;8.80;;;5.90;99.90;;;;;;5056160;28;20052;-46
2023/01/29 07:09:24;;;;;;;11.25;8.93;;;5.90;99.90;;;;;;5055786;28;20102;-53
2023/01/29 07:11:51;;;;;;;10.77;8.75;;;5.90;99.90;;;;;;5055997;28;20063;-48
2023/01/29 07:14:18;;;;;;;12.73;9.60;;;5.90;99.90;;;;;;5056034;28;20103;-49
2023/01/29 07:16:45;;;;;;;11.38;8.70;;;5.90;99.90;;;;;;5055763;28;20057;-47
2023/01/29 07:19:11;;;;;;;10.55;8.18;;;5.90;99.90;;;;;;5056251;28;20114;-48
2023/01/29 07:21:38;;;;;;;11.73;9.13;;;5.90;99.90;;;;;;5055803;28;20049;-52
2023/01/29 07:24:05;;;;;;;9.43;7.72;;;5.90;99.90;;;;;;5055945;28;20527;-46
2023/01/29 07:26:32;;;;;;;12.10;8.43;;;5.90;99.90;;;;;;5055758;28;20548;-45
2023/01/29 07:28:58;;;;;;;10.50;7.93;;;5.90;99.90;;;;;;5055741;28;20048;-49
2023/01/29 07:31:25;;;;;;;10.00;7.88;;;5.90;99.90;;;;;;5056241;28;20048;-47
2023/01/29 07:33:52;;;;;;;11.27;7.72;;;5.90;99.90;;;;;;5055649;28;20049;-50
2023/01/29 07:36:19;;;;;;;11.00;7.93;;;5.90;99.90;;;;;;5053833;28;20044;-54
2023/01/29 07:38:45;;;;;;;11.02;8.23;;;5.80;99.90;;;;;;5055566;28;20037;-52
2023/01/29 07:41:12;;;;;;;10.02;8.15;;;5.80;99.90;;;;;;5055540;28;20040;-49
2023/01/29 07:43:43;;;;;;;11.10;7.53;;;5.80;99.90;;;;;;5054369;28;20524;-49
2023/01/29 07:46:10;;;;;;;12.35;7.85;;;5.80;99.90;;;;;;5054978;28;20064;-49
2023/01/29 07:48:37;;;;;;;10.55;7.43;;;5.80;99.90;;;;;;5055369;28;20083;-51
2023/01/29 07:51:04;;;;;;;13.40;7.90;;;5.80;99.90;;;;;;5054963;28;20041;-49
2023/01/29 07:53:31;;;;;;;11.20;8.15;;;5.80;99.90;;;;;;5054780;28;20051;-48
2023/01/29 07:55:58;;;;;;;10.07;7.82;;;5.80;99.90;;;;;;5054026;28;20492;-45
2023/01/29 07:58:25;;;;;;;10.38;7.28;;;5.80;99.90;;;;;;5055099;28;20083;-50
2023/01/29 08:00:51;;;;;;;10.57;7.25;;;5.80;99.90;;;;;;5054961;28;20048;-47
2023/01/29 08:03:21;;;;;;;10.30;7.35;;;5.80;99.90;;;;;;5055056;28;20037;-47
2023/01/29 08:05:48;;;;;;;10.68;7.50;;;5.80;99.90;;;;;;5054711;28;20037;-49
2023/01/29 08:08:14;;;;;;;11.60;7.68;;;5.80;99.90;;;;;;5053350;28;20427;-45
2023/01/29 08:10:41;;;;;;;10.40;7.40;;;5.90;99.90;;;;;;5054717;28;20045;-49
2023/01/29 08:13:08;;;;;;;10.45;7.25;;;5.90;99.90;;;;;;5054887;28;20052;-51
2023/01/29 08:15:35;;;;;;;9.52;6.85;;;5.90;99.90;;;;;;5054276;28;20045;-52
2023/01/29 08:18:04;;;;;;;11.55;6.75;;;5.90;99.90;;;;;;5053186;28;20056;-48
2023/01/29 08:20:31;;;;;;;10.70;7.35;;;6.00;99.90;;;;;;5054862;28;20112;-50
2023/01/29 08:22:58;;;;;;;10.63;7.40;;;6.00;99.90;;;;;;5054649;28;20051;-51
2023/01/29 08:25:25;;;;;;;11.38;7.43;;;6.00;99.90;;;;;;5054520;28;20071;-50
2023/01/29 08:27:52;;;;;;;10.30;7.40;;;6.00;99.90;;;;;;5054307;28;20055;-53
2023/01/29 08:30:19;;;;;;;9.93;7.63;;;6.00;99.90;;;;;;5054715;28;20045;-51
2023/01/29 08:32:46;;;;;;;9.77;7.15;;;6.10;99.90;;;;;;5054477;28;20048;-48
2023/01/29 08:35:13;;;;;;;12.90;7.55;;;6.10;99.90;;;;;;5053108;28;20048;-47
2023/01/29 08:37:39;;;;;;;12.00;8.13;;;6.20;99.90;;;;;;5054544;28;20090;-50
2023/01/29 08:40:08;;;;;;;10.20;7.30;;;6.20;99.90;;;;;;5053422;28;20116;-53
2023/01/29 08:42:35;;;;;;;9.13;7.35;;;6.20;99.90;;;;;;5055053;28;20041;-47
2023/01/29 08:45:02;;;;;;;11.93;7.72;;;6.20;99.90;;;;;;5054845;28;20041;-46
2023/01/29 08:47:28;;;;;;;8.98;7.22;;;6.30;99.90;;;;;;5053834;28;20041;-47
2023/01/29 08:49:55;;;;;;;9.52;7.30;;;6.30;99.90;;;;;;5038575;28;20041;-47
2023/01/29 08:52:22;;;;;;;9.75;7.18;;;6.40;99.90;;;;;;5044214;28;20393;-51
2023/01/29 08:54:48;;;;;;;10.65;7.90;;;6.40;99.90;;;;;;5044310;28;20053;-50
2023/01/29 08:57:15;;;;;;;9.85;7.72;;;6.40;99.90;;;;;;5041998;28;20067;-50
2023/01/29 08:59:42;;;;;;;9.80;7.35;;;6.40;99.90;;;;;;5043761;28;20059;-54
2023/01/29 09:02:09;;;;;;;9.57;7.30;;;6.50;99.90;;;;;;5046403;28;20086;-53
2023/01/29 09:04:35;;;;;;;11.20;8.02;;;6.50;99.90;;;;;;5053796;28;20043;-51
2023/01/29 09:07:02;;;;;;;11.82;8.15;;;6.50;99.90;;;;;;5053300;28;20120;-53
2023/01/29 09:09:29;;;;;;;12.45;8.18;;;6.60;99.90;;;;;;5053603;28;20476;-54
2023/01/29 09:11:56;;;;;;;11.85;8.63;;;6.60;99.90;;;;;;5052873;28;20464;-49
2023/01/29 09:14:22;;;;;;;12.15;8.55;;;6.60;99.90;;;;;;5053814;28;20481;-50
2023/01/29 09:16:49;;;;;;;14.18;9.15;;;6.70;99.90;;;;;;5053235;28;20087;-50
2023/01/29 09:19:16;;;;;;;14.27;9.45;;;6.70;99.90;;;;;;5053784;28;20079;-51
2023/01/29 09:21:43;;;;;;;11.82;9.32;;;6.60;99.90;;;;;;5053807;28;20073;-50
2023/01/29 09:24:09;;;;;;;11.95;8.50;;;6.60;99.90;;;;;;5053838;28;20056;-52
2023/01/29 09:26:38;;;;;;;15.15;9.95;;;6.60;99.90;;;;;;5053761;28;20091;-54
2023/01/29 09:29:05;;;;;;;13.90;9.30;;;6.60;99.90;;;;;;5052363;28;20464;-52
2023/01/29 09:31:32;;;;;;;13.30;8.88;;;6.60;99.90;;;;;;5053251;28;20500;-54
2023/01/29 09:33:59;;;;;;;14.40;9.73;;;6.60;99.90;;;;;;5053774;28;20063;-53
2023/01/29 09:36:25;;;;;;;16.02;9.55;;;6.70;99.90;;;;;;5053572;28;20385;-47
2023/01/29 09:38:52;;;;;;;14.43;9.15;;;6.70;99.90;;;;;;5052387;28;20140;-50
2023/01/29 09:41:19;;;;;;;13.88;9.85;;;6.80;99.90;;;;;;5053650;28;20081;-49
2023/01/29 09:43:46;;;;;;;13.48;9.43;;;6.80;99.90;;;;;;5052494;28;20118;-47
2023/01/29 09:46:13;;;;;;;12.52;8.82;;;6.80;99.90;;;;;;5052018;28;20032;-48
2023/01/29 09:48:40;;;;;;;13.70;8.68;;;6.90;99.90;;;;;;5052849;28;20041;-51
2023/01/29 09:51:07;;;;;;;12.55;8.00;;;6.90;99.90;;;;;;5053033;28;20151;-51
2023/01/29 09:53:34;;;;;;;9.38;7.90;;;6.90;99.90;;;;;;5053443;28;20049;-53
2023/01/29 09:56:00;;;;;;;14.40;8.32;;;7.00;99.90;;;;;;5053312;28;20048;-48
2023/01/29 09:58:27;;;;;;;13.85;8.52;;;6.90;99.90;;;;;;5053225;28;20114;-47
2023/01/29 10:00:57;;;;;;;13.60;8.63;;;6.90;99.90;;;;;;5053290;28;20045;-49
2023/01/29 10:03:23;;;;;;;13.50;8.60;;;7.00;99.90;;;;;;5052399;28;20047;-54
2023/01/29 10:05:50;;;;;;;12.52;8.80;;;7.00;99.90;;;;;;5052729;28;20037;-53
2023/01/29 10:08:17;;;;;;;14.13;8.77;;;7.00;99.90;;;;;;5053317;28;20443;-52
2023/01/29 10:10:43;;;;;;;12.68;8.60;;;7.00;99.90;;;;;;5053272;28;20045;-52
2023/01/29 10:13:10;;;;;;;11.35;7.65;;;7.10;99.90;;;;;;5053042;28;20484;-50
2023/01/29 10:15:37;;;;;;;12.35;7.88;;;7.10;99.90;;;;;;5051733;28;20075;-48
2023/01/29 10:18:04;;;;;;;11.50;8.20;;;7.10;99.90;;;;;;5055957;28;20045;-49
2023/01/29 10:20:30;;;;;;;10.65;7.88;;;7.20;99.90;;;;;;5057158;28;20436;-49
2023/01/29 10:22:57;;;;;;;11.73;8.02;;;7.10;99.90;;;;;;5050277;28;20095;-49
2023/01/29 10:25:24;;;;;;;11.82;7.47;;;7.20;99.90;;;;;;5055683;28;20151;-53
2023/01/29 10:27:51;;;;;;;11.25;7.68;;;7.20;99.90;;;;;;5055253;28;20127;-49
2023/01/29 10:30:17;;;;;;;10.75;7.50;;;7.30;99.90;;;;;;5055809;28;20045;-49
2023/01/29 10:32:44;;;;;;;11.35;7.97;;;7.30;99.90;;;;;;5056004;28;20045;-51
2023/01/29 10:35:11;;;;;;;11.90;8.27;;;7.30;99.90;;;;;;5055850;28;20055;-53
2023/01/29 10:37:38;;;;;;;12.27;8.05;;;7.40;99.90;;;;;;5054860;28;20044;-48
2023/01/29 10:40:04;;;;;;;11.13;7.90;;;7.40;99.90;;;;;;5054556;28;20554;-52
2023/01/29 10:42:31;;;;;;;14.40;7.97;;;7.40;99.90;;;;;;5056218;28;20048;-54
2023/01/29 10:44:58;;;;;;;11.52;7.93;;;7.40;99.90;;;;;;5055428;28;20045;-50
2023/01/29 10:47:24;;;;;;;12.18;9.27;;;7.40;99.90;;;;;;5055680;28;20048;-50
2023/01/29 10:49:54;;;;;;;15.02;8.98;;;7.30;99.90;;;;;;5055894;28;20037;-49
2023/01/29 10:52:20;;;;;;;11.70;8.80;;;7.40;99.90;;;;;;5037931;28;20450;-50
2023/01/29 10:54:47;;;;;;;13.30;9.63;;;7.40;99.90;;;;;;5055577;28;20498;-51
2023/01/29 10:57:14;;;;;;;14.52;9.02;;;7.50;99.90;;;;;;5055342;28;20211;-54
2023/01/29 10:59:41;;;;;;;13.77;8.82;;;7.50;99.90;;;;;;5055579;28;20045;-49
2023/01/29 11:02:07;;;;;;;15.35;9.88;;;7.60;99.90;;;;;;5055480;28;20049;-50
2023/01/29 11:04:34;;;;;;;15.10;9.30;;;7.60;99.90;;;;;;5055319;28;20039;-54
2023/01/29 11:07:01;;;;;;;14.75;9.23;;;7.70;99.90;;;;;;5053858;28;20136;-51
2023/01/29 11:09:28;;;;;;;12.80;9.07;;;7.70;99.90;;;;;;5055038;28;20045;-52
2023/01/29 11:11:55;;;;;;;14.00;9.30;;;7.70;99.90;;;;;;5055099;28;20041;-51
2023/01/29 11:14:21;;;;;;;13.63;8.73;;;7.70;99.90;;;;;;5054958;28;20400;-49
2023/01/29 11:16:48;;;;;;;13.77;8.85;;;7.70;99.90;;;;;;5055130;28;20107;-51
2023/01/29 11:19:15;;;;;;;13.32;8.88;;;7.70;99.90;;;;;;5055066;28;20080;-49
2023/01/29 11:21:42;;;;;;;13.88;8.68;;;7.70;99.90;;;;;;5055145;28;20469;-49
2023/01/29 11:24:08;;;;;;;11.07;8.60;;;7.70;99.90;;;;;;5054988;28;20045;-49
2023/01/29 11:26:35;;;;;;;11.82;8.38;;;7.70;99.90;;;;;;5055513;28;20461;-50
2023/01/29 11:29:02;;;;;;;14.82;9.10;;;7.80;99.90;;;;;;5055408;28;20041;-50
2023/01/29 11:31:29;;;;;;;12.10;8.90;;;7.80;99.90;;;;;;5054559;28;20204;-49
2023/01/29 11:33:56;;;;;;;13.30;8.57;;;7.90;99.90;;;;;;5053233;28;20119;-53
2023/01/29 11:36:22;;;;;;;10.50;7.97;;;7.90;99.90;;;;;;5053796;28;20491;-53
2023/01/29 11:38:49;;;;;;;11.65;7.95;;;7.90;99.90;;;;;;5051825;28;20118;-50
2023/01/29 11:41:21;;;;;;;12.27;7.90;;;7.90;99.90;;;;;;5053993;28;20037;-51
2023/01/29 11:43:48;;;;;;;11.68;8.00;;;8.00;99.90;;;;;;5052749;28;20053;-52
2023/01/29 11:46:14;;;;;;;14.27;8.23;;;8.00;99.90;;;;;;5054481;28;20460;-49
2023/01/29 11:48:41;;;;;;;12.43;8.98;;;8.00;99.90;;;;;;5055197;28;20041;-51
2023/01/29 11:51:08;;;;;;;9.85;8.10;;;8.10;99.90;;;;;;5055178;28;20119;-53
2023/01/29 11:53:35;;;;;;;13.82;9.55;;;8.10;99.90;;;;;;5055224;28;20102;-54
2023/01/29 11:56:01;;;;;;;11.65;8.98;;;8.10;99.90;;;;;;5054023;28;20477;-50
2023/01/29 11:58:28;;;;;;;11.75;8.23;;;8.10;99.90;;;;;;5053950;28;20045;-55
2023/01/29 12:00:55;;;;;;;12.10;7.90;;;8.10;99.90;;;;;;5054647;28;20083;-49
2023/01/29 12:03:21;;;;;;;10.07;7.35;;;8.10;99.90;;;;;;5055053;28;20071;-54
2023/01/29 12:05:50;;;;;;;8.30;6.57;;;8.10;99.90;;;;;;5054924;28;20056;-49
2023/01/29 12:08:17;;;;;;;11.07;7.80;;;8.00;99.90;;;;;;5055029;28;20048;-53
2023/01/29 12:10:44;;;;;;;12.65;8.15;;;8.00;99.90;;;;;;5054740;28;20170;-53
2023/01/29 12:13:11;;;;;;;10.65;7.35;;;8.00;99.90;;;;;;5054220;28;20055;-51
2023/01/29 12:15:37;;;;;;;10.90;8.10;;;7.90;99.90;;;;;;5053423;28;20400;-55
2023/01/29 12:18:04;;;;;;;10.48;7.63;;;7.90;99.90;;;;;;5054362;28;20045;-53
2023/01/29 12:20:31;;;;;;;12.32;7.22;;;7.90;99.90;;;;;;5054223;28;20088;-50
2023/01/29 12:22:57;;;;;;;11.23;7.60;;;7.90;99.90;;;;;;5054304;28;20045;-49
2023/01/29 12:25:24;;;;;;;11.15;7.65;;;7.90;99.90;;;;;;5054423;28;20484;-52
2023/01/29 12:27:51;;;;;;;11.27;7.75;;;7.90;99.90;;;;;;5054336;28;20091;-51
2023/01/29 12:30:18;;;;;;;10.00;7.18;;;7.80;99.90;;;;;;5054444;28;20076;-52
2023/01/29 12:32:45;;;;;;;10.63;7.53;;;7.90;99.90;;;;;;5054409;28;20059;-57
2023/01/29 12:35:12;;;;;;;11.85;7.18;;;7.90;99.90;;;;;;5054019;28;20065;-54
2023/01/29 12:37:38;;;;;;;9.07;6.53;;;7.80;99.90;;;;;;5054388;28;20040;-55
2023/01/29 12:40:05;;;;;;;9.75;6.32;;;7.90;99.90;;;;;;5052569;28;20098;-55
2023/01/29 12:42:32;;;;;;;12.05;6.75;;;7.90;99.90;;;;;;5054028;28;20063;-51
2023/01/29 12:44:59;;;;;;;8.35;6.03;;;8.00;99.90;;;;;;5054381;28;20094;-51
2023/01/29 12:47:25;;;;;;;10.00;6.18;;;8.10;99.90;;;;;;5053898;28;20067;-56
2023/01/29 12:49:52;;;;;;;7.85;5.82;;;8.20;99.90;;;;;;5054318;28;20037;-49
2023/01/29 12:52:19;;;;;;;7.13;5.30;;;8.20;99.90;;;;;;5053994;28;20041;-55
2023/01/29 12:54:46;;;;;;;8.23;5.15;;;8.20;99.90;;;;;;5054325;28;20123;-51
2023/01/29 12:57:12;;;;;;;5.85;4.45;;;8.20;99.90;;;;;;5053740;28;20041;-53
2023/01/29 12:59:39;;;;;;;6.38;4.70;;;8.30;99.90;;;;;;5053449;28;20041;-56
2023/01/29 13:02:06;;;;;;;6.13;4.60;;;8.30;99.90;;;;;;5054031;28;20089;-55
2023/01/29 13:04:33;;;;;;;6.65;4.90;;;8.30;99.90;;;;;;5053676;28;20041;-54
2023/01/29 13:07:00;;;;;;;6.95;4.40;;;8.40;99.90;;;;;;5052406;28;20033;-55
2023/01/29 13:09:26;;;;;;;4.97;4.38;;;8.40;99.90;;;;;;5053460;28;20049;-54
2023/01/29 13:11:53;;;;;;;5.28;3.97;;;8.40;99.90;;;;;;5053687;28;20041;-51
2023/01/29 13:14:20;;;;;;;5.40;4.47;;;8.30;99.90;;;;;;5053667;28;20095;-51